Time;durP1;ratioP1;P1;durP2;ratioP2;P2;SDS_P1;SDS_P2;PMS_P1;PMS_P2;Temp;Humidity;BMP_temperature;BMP_pressure;BME280_temperature;BME280_humidity;BME280_pressure;Samples;Min_cycle;Max_cycle;Signal;HPM_P1;HPM_P2
2021/09/25 00:01:12;;;;;;;1999.90;974.50;;;17.90;99.90;;;;;;5019929;28;20455;-80
2021/09/25 00:03:42;;;;;;;1999.90;983.17;;;17.90;99.90;;;;;;5005658;28;20459;-80
2021/09/25 00:06:10;;;;;;;1999.90;959.30;;;17.90;99.90;;;;;;5039883;28;20477;-79
2021/09/25 00:08:38;;;;;;;1999.90;894.83;;;17.90;99.90;;;;;;5042028;28;20996;-80
2021/09/25 00:11:08;;;;;;;1999.90;973.77;;;17.90;99.90;;;;;;5024505;28;20455;-80
2021/09/25 00:13:36;;;;;;;1999.90;985.27;;;17.90;99.90;;;;;;5021043;28;20464;-80
2021/09/25 00:16:07;;;;;;;1999.90;956.70;;;17.90;99.90;;;;;;5019884;28;20513;-79
2021/09/25 00:18:36;;;;;;;1999.90;999.90;;;17.90;99.90;;;;;;5014335;28;20517;-80
2021/09/25 00:21:06;;;;;;;1999.90;985.93;;;17.90;99.90;;;;;;5023942;28;20410;-80
2021/09/25 00:23:34;;;;;;;1999.90;999.90;;;17.80;99.90;;;;;;4992417;28;20890;-79
2021/09/25 00:26:03;;;;;;;1999.90;999.90;;;17.90;99.90;;;;;;5004815;28;20232;-79
2021/09/25 00:28:31;;;;;;;1999.90;999.90;;;17.90;99.90;;;;;;5006482;28;20503;-79
2021/09/25 00:30:59;;;;;;;1999.90;999.90;;;17.90;99.90;;;;;;5023753;28;20929;-79
2021/09/25 00:33:27;;;;;;;1999.90;999.90;;;17.80;99.90;;;;;;5007172;28;20559;-80
2021/09/25 00:35:55;;;;;;;1999.90;999.90;;;17.80;99.90;;;;;;5003385;28;20474;-79
2021/09/25 00:38:25;;;;;;;1999.90;999.90;;;17.80;99.90;;;;;;5023116;28;20448;-80
2021/09/25 00:40:54;;;;;;;1999.90;999.90;;;17.80;99.90;;;;;;5022024;28;20476;-80
2021/09/25 00:43:24;;;;;;;1999.90;999.90;;;17.70;99.90;;;;;;5022397;28;20394;-80
2021/09/25 00:45:52;;;;;;;1999.90;999.90;;;17.70;99.90;;;;;;5004576;28;20476;-80
2021/09/25 00:48:20;;;;;;;1999.90;999.90;;;17.70;99.90;;;;;;5005371;28;20464;-79
2021/09/25 00:50:49;;;;;;;1999.90;999.90;;;17.70;99.90;;;;;;5019482;28;20471;-79
2021/09/25 00:53:17;;;;;;;1999.90;999.90;;;17.70;99.90;;;;;;5042078;28;20520;-80
2021/09/25 00:55:49;;;;;;;1999.90;999.90;;;17.70;99.90;;;;;;5042977;28;20451;-80
2021/09/25 00:58:19;;;;;;;1999.90;999.90;;;17.70;99.90;;;;;;5024323;28;20512;-80
2021/09/25 01:00:47;;;;;;;1999.90;999.90;;;17.70;99.90;;;;;;5024222;28;20725;-80
2021/09/25 01:03:16;;;;;;;1999.90;999.90;;;17.70;99.90;;;;;;5005376;28;20486;-80
2021/09/25 01:05:45;;;;;;;1999.90;999.90;;;17.70;99.90;;;;;;5003145;28;20225;-79
2021/09/25 01:08:13;;;;;;;1999.90;999.90;;;17.70;99.90;;;;;;5005909;28;20495;-79
2021/09/25 01:10:42;;;;;;;1999.90;999.90;;;17.70;99.90;;;;;;5004251;28;20452;-80
2021/09/25 01:13:12;;;;;;;1999.90;999.90;;;17.60;99.90;;;;;;5004182;28;20448;-79
2021/09/25 01:15:42;;;;;;;1999.90;999.90;;;17.60;99.90;;;;;;5023398;28;21008;-79
2021/09/25 01:18:10;;;;;;;1999.90;999.90;;;17.60;99.90;;;;;;5038349;28;20461;-80
2021/09/25 01:20:38;;;;;;;1999.90;999.90;;;17.60;99.90;;;;;;5011633;28;20907;-80
2021/09/25 01:23:08;;;;;;;1999.90;999.90;;;17.60;99.90;;;;;;5003292;28;20479;-79
2021/09/25 01:25:36;;;;;;;1999.90;999.90;;;17.60;99.90;;;;;;5002068;28;20450;-79
2021/09/25 01:28:05;;;;;;;1999.90;999.90;;;17.60;99.90;;;;;;5001448;28;20469;-79
2021/09/25 01:30:33;;;;;;;1999.90;999.90;;;17.60;99.90;;;;;;5004248;28;20641;-79
2021/09/25 01:33:02;;;;;;;1999.90;999.90;;;17.60;99.90;;;;;;5007334;28;21043;-79
2021/09/25 01:35:30;;;;;;;1999.90;999.90;;;17.60;99.90;;;;;;5021775;28;20480;-79
2021/09/25 01:37:58;;;;;;;1999.90;999.90;;;17.60;99.90;;;;;;5022216;28;20413;-79
2021/09/25 01:40:28;;;;;;;1999.90;999.90;;;17.50;99.90;;;;;;5022926;28;20463;-80
2021/09/25 01:42:56;;;;;;;1999.90;999.90;;;17.50;99.90;;;;;;5042196;28;20443;-80
2021/09/25 01:45:25;;;;;;;1999.90;999.90;;;17.50;99.90;;;;;;5040681;28;20466;-80
2021/09/25 01:47:53;;;;;;;1999.90;999.90;;;17.50;99.90;;;;;;5022709;28;20457;-79
2021/09/25 01:50:21;;;;;;;1999.90;999.90;;;17.50;99.90;;;;;;5019933;28;20439;-79
2021/09/25 01:52:49;;;;;;;1999.90;999.90;;;17.50;99.90;;;;;;5022050;28;20497;-80
2021/09/25 01:55:17;;;;;;;1999.90;999.90;;;17.50;99.90;;;;;;5021654;28;21009;-79
2021/09/25 01:57:47;;;;;;;1999.90;999.90;;;17.50;99.90;;;;;;5040970;28;20437;-79
2021/09/25 02:00:16;;;;;;;1999.90;999.90;;;17.50;99.90;;;;;;5021049;28;20422;-79
2021/09/25 02:02:44;;;;;;;1999.90;999.90;;;17.50;99.90;;;;;;5021554;28;20453;-79
2021/09/25 02:05:15;;;;;;;1182.88;945.47;;;17.40;99.90;;;;;;5037213;28;20434;-79
2021/09/25 02:07:44;;;;;;;1999.90;999.90;;;17.50;99.90;;;;;;5036390;28;20243;-79
2021/09/25 02:10:13;;;;;;;1999.90;999.90;;;17.50;99.90;;;;;;5021025;28;20491;-79
2021/09/25 02:12:42;;;;;;;1999.90;999.90;;;17.50;99.90;;;;;;5018685;28;20977;-79
2021/09/25 02:15:13;;;;;;;1999.90;999.90;;;17.50;99.90;;;;;;5008439;28;20490;-79
2021/09/25 02:17:41;;;;;;;1999.90;999.90;;;17.40;99.90;;;;;;5020947;28;20438;-80
2021/09/25 02:20:12;;;;;;;1999.90;999.90;;;17.40;99.90;;;;;;5003817;28;20429;-80
2021/09/25 02:22:41;;;;;;;1999.90;999.90;;;17.40;99.90;;;;;;5023091;28;20429;-80
2021/09/25 02:25:11;;;;;;;1999.90;999.90;;;17.40;99.90;;;;;;5022198;28;20441;-79
2021/09/25 02:27:40;;;;;;;1999.90;999.90;;;17.30;99.90;;;;;;5039129;28;20962;-78
2021/09/25 02:30:14;;;;;;;1999.90;999.90;;;17.30;99.90;;;;;;5039880;28;20497;-79
2021/09/25 02:32:43;;;;;;;1999.90;999.90;;;17.30;99.90;;;;;;5021630;28;20475;-80
2021/09/25 02:35:12;;;;;;;1999.90;999.90;;;17.30;99.90;;;;;;5024686;28;20441;-79
2021/09/25 02:37:40;;;;;;;1999.90;999.90;;;17.30;99.90;;;;;;5007223;28;20813;-79
2021/09/25 02:40:10;;;;;;;1999.90;999.90;;;17.30;99.90;;;;;;5019780;28;20528;-80
2021/09/25 02:42:40;;;;;;;1999.90;999.90;;;17.30;99.90;;;;;;5041390;28;20448;-80
2021/09/25 02:45:09;;;;;;;1999.90;999.90;;;17.30;99.90;;;;;;5039760;28;20485;-79
2021/09/25 02:47:40;;;;;;;1999.90;999.90;;;17.30;99.90;;;;;;5022262;28;20417;-79
2021/09/25 02:50:11;;;;;;;1999.90;999.90;;;17.30;99.90;;;;;;5022530;28;20437;-80
2021/09/25 02:52:40;;;;;;;1999.90;999.90;;;17.20;99.90;;;;;;5024074;28;21022;-80
2021/09/25 02:55:10;;;;;;;1999.90;999.90;;;17.20;99.90;;;;;;5022468;28;20461;-80
2021/09/25 02:57:38;;;;;;;1999.90;999.90;;;17.20;99.90;;;;;;5023530;28;20521;-80
2021/09/25 03:00:09;;;;;;;1999.90;999.90;;;17.20;99.90;;;;;;5025455;28;20489;-80
2021/09/25 03:02:38;;;;;;;1999.90;999.90;;;17.20;99.90;;;;;;5022522;28;20258;-79
2021/09/25 03:05:08;;;;;;;1999.90;999.90;;;17.20;99.90;;;;;;5014891;28;20513;-79
2021/09/25 03:07:36;;;;;;;410.98;373.13;;;17.20;99.90;;;;;;5024699;28;20867;-80
2021/09/25 03:10:06;;;;;;;1999.90;999.90;;;17.30;99.90;;;;;;5043896;28;20211;-80
2021/09/25 03:12:35;;;;;;;1999.90;999.90;;;17.30;99.90;;;;;;5026881;28;20787;-80
2021/09/25 03:15:05;;;;;;;1999.90;999.90;;;17.30;99.90;;;;;;5025871;28;20453;-79
2021/09/25 03:17:34;;;;;;;1999.90;999.90;;;17.20;99.90;;;;;;5043927;28;20480;-80
2021/09/25 03:20:04;;;;;;;1999.90;999.90;;;17.20;99.90;;;;;;5034649;28;20422;-79
2021/09/25 03:22:32;;;;;;;1999.90;999.90;;;17.20;99.90;;;;;;5004825;28;20426;-79
2021/09/25 03:25:06;;;;;;;1999.90;999.90;;;17.20;99.90;;;;;;5028164;28;20463;-79
2021/09/25 03:27:35;;;;;;;1999.90;999.90;;;17.20;99.90;;;;;;5013318;28;20482;-79
2021/09/25 03:30:07;;;;;;;1999.90;999.90;;;17.20;99.90;;;;;;5005875;28;20417;-79
2021/09/25 03:32:35;;;;;;;317.65;288.38;;;17.20;99.90;;;;;;5016554;28;20512;-79
2021/09/25 03:35:06;;;;;;;1999.90;999.90;;;17.30;99.90;;;;;;5042233;28;20226;-79
2021/09/25 03:37:34;;;;;;;1980.25;999.90;;;17.30;99.90;;;;;;5039558;28;20461;-79
2021/09/25 03:40:03;;;;;;;1999.90;999.90;;;17.30;99.90;;;;;;5005340;28;20228;-79
2021/09/25 03:42:31;;;;;;;1999.90;999.90;;;17.30;99.90;;;;;;5004855;28;20521;-79
2021/09/25 03:45:00;;;;;;;1999.90;999.90;;;17.30;99.90;;;;;;5004570;28;21036;-79
2021/09/25 03:47:28;;;;;;;1999.90;999.90;;;17.30;99.90;;;;;;5004762;28;20958;-79
2021/09/25 03:49:56;;;;;;;1999.90;999.90;;;17.30;99.90;;;;;;5010687;28;20450;-79
2021/09/25 03:52:26;;;;;;;1999.90;999.90;;;17.30;99.90;;;;;;5024176;28;20436;-80
2021/09/25 03:54:54;;;;;;;1999.90;999.90;;;17.30;99.90;;;;;;5024264;28;20482;-79
2021/09/25 03:57:22;;;;;;;1999.90;999.90;;;17.30;99.90;;;;;;5024107;28;20451;-80
2021/09/25 03:59:50;;;;;;;1999.90;999.90;;;17.30;99.90;;;;;;5041952;28;20414;-79
2021/09/25 04:02:18;;;;;;;1999.90;999.90;;;17.20;99.90;;;;;;5013191;28;20451;-79
2021/09/25 04:04:47;;;;;;;1999.90;999.90;;;17.30;99.90;;;;;;5004420;28;20430;-79
2021/09/25 04:07:15;;;;;;;1999.90;999.90;;;17.20;99.90;;;;;;5004552;28;20447;-79
2021/09/25 04:09:45;;;;;;;1999.90;999.90;;;17.30;99.90;;;;;;5006353;28;20223;-80
2021/09/25 04:12:13;;;;;;;1999.90;999.90;;;17.30;99.90;;;;;;5006785;28;20418;-80
2021/09/25 04:14:41;;;;;;;205.85;189.70;;;17.30;99.90;;;;;;5003873;28;20440;-79
2021/09/25 04:17:09;;;;;;;1999.90;999.90;;;17.30;99.90;;;;;;5005961;28;20299;-80
2021/09/25 04:19:38;;;;;;;1999.90;999.90;;;17.40;99.90;;;;;;5015436;28;20437;-79
2021/09/25 04:22:06;;;;;;;1999.90;999.90;;;17.30;99.90;;;;;;5006170;28;20463;-80
2021/09/25 04:24:34;;;;;;;1999.90;999.90;;;17.30;99.90;;;;;;5005128;28;20455;-80
2021/09/25 04:27:04;;;;;;;1999.90;999.90;;;17.30;99.90;;;;;;5023198;28;20440;-80
2021/09/25 04:29:32;;;;;;;1999.90;999.90;;;17.30;99.90;;;;;;5006295;28;20450;-80
2021/09/25 04:32:00;;;;;;;1999.90;999.90;;;17.30;99.90;;;;;;5005732;28;20971;-80
2021/09/25 04:34:29;;;;;;;1999.90;999.90;;;17.30;99.90;;;;;;5002273;28;20854;-80
2021/09/25 04:36:57;;;;;;;1999.90;999.90;;;17.30;99.90;;;;;;5001421;28;20464;-79
2021/09/25 04:39:25;;;;;;;31.53;29.03;;;17.30;99.90;;;;;;4998753;28;20846;-79
2021/09/25 04:41:54;;;;;;;1999.90;999.90;;;17.30;99.90;;;;;;4983437;28;20452;-79
2021/09/25 04:44:24;;;;;;;1999.90;999.90;;;17.30;99.90;;;;;;4997991;28;20434;-79
2021/09/25 04:46:52;;;;;;;1999.90;999.90;;;17.30;99.90;;;;;;5029015;28;20446;-79
2021/09/25 04:49:22;;;;;;;1999.90;999.90;;;17.30;99.90;;;;;;5024279;28;20518;-80
2021/09/25 04:51:50;;;;;;;1999.90;999.90;;;17.30;99.90;;;;;;5025105;28;20533;-80
2021/09/25 04:54:20;;;;;;;1999.90;999.90;;;17.30;99.90;;;;;;5024477;28;20425;-80
2021/09/25 04:56:48;;;;;;;1999.90;999.90;;;17.20;99.90;;;;;;5023919;28;20452;-79
2021/09/25 04:59:16;;;;;;;1999.90;999.90;;;17.20;99.90;;;;;;5021763;28;20512;-79
2021/09/25 05:01:46;;;;;;;1999.90;999.90;;;17.30;99.90;;;;;;5008354;28;20451;-79
2021/09/25 05:04:15;;;;;;;1999.90;999.90;;;17.20;99.90;;;;;;5041033;28;20410;-80
2021/09/25 05:06:43;;;;;;;1999.90;999.90;;;17.20;99.90;;;;;;5004252;28;20454;-79
2021/09/25 05:09:11;;;;;;;1999.90;999.90;;;17.30;99.90;;;;;;5021941;28;20470;-79
2021/09/25 05:11:39;;;;;;;1999.90;999.90;;;17.20;99.90;;;;;;5005140;28;20203;-80
2021/09/25 05:14:07;;;;;;;1999.90;999.90;;;17.30;99.90;;;;;;5003667;28;20532;-79
2021/09/25 05:16:35;;;;;;;23.30;21.08;;;17.30;99.90;;;;;;5016189;28;20579;-80
2021/09/25 05:19:05;;;;;;;1999.90;999.90;;;17.30;99.90;;;;;;5024724;28;20279;-80
2021/09/25 05:21:33;;;;;;;1999.90;999.90;;;17.30;99.90;;;;;;5013302;28;20482;-79
2021/09/25 05:24:02;;;;;;;1999.90;999.90;;;17.30;99.90;;;;;;5042471;28;20493;-80
2021/09/25 05:26:35;;;;;;;1999.90;999.90;;;17.30;99.90;;;;;;5002010;28;20451;-80
2021/09/25 05:29:04;;;;;;;1999.90;999.90;;;17.30;99.90;;;;;;4978042;28;20430;-78
2021/09/25 05:31:32;;;;;;;1999.90;999.90;;;17.20;99.90;;;;;;4993836;28;20449;-77
2021/09/25 05:34:01;;;;;;;1999.90;999.90;;;17.30;99.90;;;;;;4977551;28;20452;-77
2021/09/25 05:36:30;;;;;;;1999.90;999.90;;;17.20;99.90;;;;;;4993572;28;20822;-77
2021/09/25 05:38:59;;;;;;;1999.90;999.90;;;17.30;99.90;;;;;;4977668;28;20448;-78
2021/09/25 05:41:27;;;;;;;1999.90;999.90;;;17.30;99.90;;;;;;5016829;28;20430;-77
2021/09/25 05:43:55;;;;;;;1999.90;999.90;;;17.30;99.90;;;;;;5016497;28;20424;-77
2021/09/25 05:46:24;;;;;;;24.60;22.20;;;17.20;99.90;;;;;;5001007;28;20504;-77
2021/09/25 05:48:52;;;;;;;1860.70;998.07;;;17.30;99.90;;;;;;5020771;28;20203;-79
2021/09/25 05:51:21;;;;;;;48.27;43.70;;;17.30;99.90;;;;;;5024260;28;20528;-80
2021/09/25 05:53:50;;;;;;;1999.90;962.30;;;17.40;99.90;;;;;;5022575;28;20787;-81
2021/09/25 05:56:19;;;;;;;1999.90;964.30;;;17.30;99.90;;;;;;5029618;28;20879;-80
2021/09/25 05:58:47;;;;;;;1999.90;999.90;;;17.30;99.90;;;;;;5020398;28;20507;-80
2021/09/25 06:01:15;;;;;;;1999.90;999.90;;;17.30;99.90;;;;;;5003339;28;20517;-80
2021/09/25 06:03:44;;;;;;;1999.90;999.90;;;17.30;99.90;;;;;;5003950;28;20456;-80
2021/09/25 06:06:12;;;;;;;1999.90;999.90;;;17.30;99.90;;;;;;5006246;28;20471;-81
2021/09/25 06:08:40;;;;;;;1999.90;999.90;;;17.30;99.90;;;;;;5023100;28;20523;-81
2021/09/25 06:11:10;;;;;;;1999.90;999.90;;;17.30;99.90;;;;;;5023268;28;20509;-81
2021/09/25 06:13:38;;;;;;;1999.90;999.90;;;17.30;99.90;;;;;;5038562;28;20442;-80
2021/09/25 06:16:06;;;;;;;359.37;325.50;;;17.40;99.90;;;;;;5022640;28;20475;-80
2021/09/25 06:18:34;;;;;;;1999.90;999.90;;;17.40;99.90;;;;;;5023147;28;20930;-81
2021/09/25 06:21:03;;;;;;;1999.90;999.90;;;17.40;99.90;;;;;;5019437;28;21133;-80
2021/09/25 06:23:31;;;;;;;20.42;18.23;;;17.40;99.90;;;;;;5002643;28;20447;-80
2021/09/25 06:26:00;;;;;;;1999.90;999.90;;;17.50;99.90;;;;;;5022043;28;20573;-81
2021/09/25 06:28:30;;;;;;;1999.90;999.90;;;17.50;99.90;;;;;;5013666;28;20459;-80
2021/09/25 06:30:58;;;;;;;1999.90;999.90;;;17.50;99.90;;;;;;5024894;28;20495;-80
2021/09/25 06:33:27;;;;;;;1999.90;999.90;;;17.50;99.90;;;;;;5019329;28;20966;-80
2021/09/25 06:35:58;;;;;;;1999.90;999.90;;;17.50;99.90;;;;;;5019945;28;20535;-81
2021/09/25 06:38:26;;;;;;;1999.90;999.90;;;17.50;99.90;;;;;;5020299;28;20478;-81
2021/09/25 06:40:54;;;;;;;1999.90;999.90;;;17.50;99.90;;;;;;5018693;28;20426;-80
2021/09/25 06:43:22;;;;;;;1999.90;999.90;;;17.50;99.90;;;;;;5019278;28;20429;-80
2021/09/25 06:45:52;;;;;;;1999.90;999.90;;;17.60;99.90;;;;;;5019231;28;20457;-81
2021/09/25 06:48:21;;;;;;;1999.90;999.90;;;17.60;99.90;;;;;;5021047;28;20549;-81
2021/09/25 06:50:49;;;;;;;1999.90;999.90;;;17.60;99.90;;;;;;5014040;28;20436;-81
2021/09/25 06:53:17;;;;;;;1999.90;999.90;;;17.60;99.90;;;;;;5003424;28;20452;-81
2021/09/25 06:55:46;;;;;;;1999.90;999.90;;;17.60;99.90;;;;;;5009641;28;20448;-81
2021/09/25 06:58:14;;;;;;;72.28;66.32;;;17.60;99.90;;;;;;5019297;28;20603;-81
2021/09/25 07:00:46;;;;;;;1999.90;999.90;;;17.70;99.90;;;;;;5020073;28;20435;-80
2021/09/25 07:03:17;;;;;;;1999.90;999.90;;;17.70;99.90;;;;;;5035947;28;20514;-81
2021/09/25 07:05:45;;;;;;;1999.90;999.90;;;17.80;99.90;;;;;;5019104;28;20628;-80
2021/09/25 07:08:14;;;;;;;1999.90;999.90;;;17.80;99.90;;;;;;5020459;28;20524;-78
2021/09/25 07:10:42;;;;;;;1999.90;999.90;;;17.80;99.90;;;;;;5023052;28;20977;-77
2021/09/25 07:13:10;;;;;;;1999.90;999.90;;;17.80;99.90;;;;;;5019155;28;20457;-79
2021/09/25 07:15:40;;;;;;;1999.90;999.90;;;17.80;99.90;;;;;;5023143;28;20468;-81
2021/09/25 07:18:08;;;;;;;1999.90;999.90;;;17.80;99.90;;;;;;5001157;28;20484;-80
2021/09/25 07:20:39;;;;;;;1999.90;999.90;;;17.90;99.90;;;;;;5005540;28;20430;-81
2021/09/25 07:23:08;;;;;;;270.90;244.45;;;17.90;99.90;;;;;;4999726;28;20541;-81
2021/09/25 07:25:39;;;;;;;1999.90;999.90;;;18.00;99.90;;;;;;5018667;28;20219;-81
2021/09/25 07:28:08;;;;;;;1999.90;999.90;;;18.00;99.90;;;;;;5006678;28;20454;-81
2021/09/25 07:30:38;;;;;;;1999.90;999.90;;;18.10;99.90;;;;;;5000769;28;20205;-81
2021/09/25 07:33:07;;;;;;;1999.90;999.90;;;18.10;99.90;;;;;;5018398;28;20505;-81
2021/09/25 07:35:37;;;;;;;1999.90;999.90;;;18.10;99.90;;;;;;5037592;28;20798;-81
2021/09/25 07:38:07;;;;;;;1999.90;999.90;;;18.10;99.90;;;;;;5027747;28;20487;-81
2021/09/25 07:40:44;;;;;;;1999.90;999.90;;;18.10;99.90;;;;;;5001606;28;20494;-81
2021/09/25 07:43:14;;;;;;;1999.90;992.73;;;18.20;99.90;;;;;;5019038;28;20439;-81
2021/09/25 07:45:43;;;;;;;1999.90;999.90;;;18.20;99.90;;;;;;5003450;28;20495;-80
2021/09/25 07:48:11;;;;;;;1999.90;999.90;;;18.20;99.90;;;;;;5004776;28;20475;-81
2021/09/25 07:50:41;;;;;;;1999.90;922.70;;;18.30;99.90;;;;;;5017355;28;20459;-80
2021/09/25 07:53:13;;;;;;;1999.90;999.90;;;18.30;99.90;;;;;;5028425;28;20440;-80
2021/09/25 07:55:41;;;;;;;1999.90;956.60;;;18.40;99.90;;;;;;5004406;28;20567;-81
2021/09/25 07:58:10;;;;;;;1199.20;951.85;;;18.40;99.90;;;;;;5003416;28;20451;-81
2021/09/25 08:00:39;;;;;;;1999.90;938.20;;;18.50;99.90;;;;;;5022293;28;20217;-80
2021/09/25 08:03:10;;;;;;;1999.90;999.90;;;18.60;99.90;;;;;;5004112;28;20837;-81
2021/09/25 08:05:52;;;;;;;1999.90;999.90;;;18.60;99.90;;;;;;5022462;28;20491;-81
2021/09/25 08:08:30;;;;;;;1999.90;999.90;;;18.70;99.90;;;;;;5010905;28;21019;-80
2021/09/25 08:10:58;;;;;;;1999.90;993.90;;;18.70;99.90;;;;;;5041564;28;20477;-82
2021/09/25 08:13:26;;;;;;;1999.90;898.87;;;18.70;99.90;;;;;;5020413;28;20504;-80
2021/09/25 08:15:54;;;;;;;1999.90;999.90;;;18.70;99.90;;;;;;5011243;28;20475;-80
2021/09/25 08:18:23;;;;;;;1999.90;999.90;;;18.80;99.90;;;;;;5039668;28;20509;-79
2021/09/25 08:20:51;;;;;;;1999.90;993.23;;;18.80;99.90;;;;;;5023031;28;20458;-80
2021/09/25 08:23:19;;;;;;;1999.90;675.77;;;18.80;99.90;;;;;;5003384;28;20456;-78
2021/09/25 08:25:49;;;;;;;1999.90;698.43;;;18.90;99.90;;;;;;5016347;28;20468;-77
2021/09/25 08:28:17;;;;;;;1999.90;954.80;;;18.90;99.90;;;;;;4998974;28;20507;-78
2021/09/25 08:30:45;;;;;;;1999.90;883.10;;;18.90;99.90;;;;;;4999190;28;20451;-77
2021/09/25 08:33:13;;;;;;;1999.90;999.90;;;19.00;99.90;;;;;;5016076;28;20459;-77
2021/09/25 08:35:42;;;;;;;1999.90;837.87;;;19.10;99.90;;;;;;4998851;28;20599;-77
2021/09/25 08:38:14;;;;;;;1999.90;743.33;;;19.10;99.90;;;;;;5013590;28;20873;-77
2021/09/25 08:40:43;;;;;;;1999.90;843.27;;;19.10;99.90;;;;;;5035712;28;20855;-77
2021/09/25 08:43:13;;;;;;;1999.90;733.40;;;19.10;99.90;;;;;;5035922;28;20450;-78
2021/09/25 08:45:41;;;;;;;1999.90;716.33;;;19.10;99.90;;;;;;5011390;28;20931;-77
2021/09/25 08:48:11;;;;;;;1999.90;701.20;;;19.20;99.90;;;;;;5017487;28;20452;-78
2021/09/25 08:50:39;;;;;;;1999.90;792.93;;;19.20;99.90;;;;;;4998392;28;20452;-78
2021/09/25 08:53:07;;;;;;;1999.90;582.53;;;19.30;99.90;;;;;;4998550;28;20447;-78
2021/09/25 08:55:35;;;;;;;1999.90;684.47;;;19.30;99.90;;;;;;4999063;28;20500;-78
2021/09/25 08:58:06;;;;;;;1999.90;999.90;;;19.30;99.90;;;;;;4988195;28;20562;-77
2021/09/25 09:00:39;;;;;;;1999.90;762.67;;;19.40;99.90;;;;;;4998580;28;20455;-77
2021/09/25 09:03:28;;;;;;;1999.90;824.00;;;19.40;99.90;;;;;;5033347;28;20519;-78
2021/09/25 09:06:05;;;;;;;1999.90;997.67;;;19.50;99.90;;;;;;5016703;28;20453;-77
2021/09/25 09:08:34;;;;;;;1999.90;781.30;;;19.60;99.90;;;;;;5018614;28;20192;-78
2021/09/25 09:11:04;;;;;;;1999.90;999.90;;;19.60;99.90;;;;;;5016598;28;20440;-78
2021/09/25 09:13:32;;;;;;;1999.90;762.10;;;19.70;99.90;;;;;;4998152;28;20472;-78
2021/09/25 09:16:05;;;;;;;1999.90;713.10;;;19.70;99.90;;;;;;4997760;28;20490;-77
2021/09/25 09:18:38;;;;;;;1999.90;889.70;;;19.80;99.90;;;;;;5020407;28;20474;-77
2021/09/25 09:21:10;;;;;;;1999.90;922.13;;;19.90;99.90;;;;;;5019471;28;20475;-77
2021/09/25 09:23:43;;;;;;;1999.90;941.67;;;20.00;99.90;;;;;;5001082;28;20450;-78
2021/09/25 09:26:16;;;;;;;1999.90;893.50;;;20.10;99.90;;;;;;5035634;28;20483;-77
2021/09/25 09:28:45;;;;;;;1999.90;868.97;;;20.10;99.90;;;;;;5017992;28;20446;-78
2021/09/25 09:31:16;;;;;;;1999.90;947.70;;;20.20;99.90;;;;;;5017866;28;20862;-78
2021/09/25 09:33:47;;;;;;;1999.90;989.00;;;20.20;99.90;;;;;;5016856;28;20515;-78
2021/09/25 09:36:23;;;;;;;1999.90;781.47;;;20.30;99.90;;;;;;5016584;28;20458;-77
2021/09/25 09:38:54;;;;;;;1999.90;911.20;;;20.30;99.90;;;;;;4997294;28;20208;-78
2021/09/25 09:41:25;;;;;;;1999.90;928.83;;;20.40;99.90;;;;;;4996617;28;20448;-77
2021/09/25 09:43:55;;;;;;;1999.90;999.90;;;20.50;99.90;;;;;;4995948;28;20451;-78
2021/09/25 09:46:35;;;;;;;1999.90;988.93;;;20.60;99.90;;;;;;4997247;28;20692;-76
2021/09/25 09:49:04;;;;;;;1520.63;584.80;;;20.70;99.90;;;;;;5014900;28;20450;-77
2021/09/25 09:51:44;;;;;;;1999.90;995.87;;;20.70;99.90;;;;;;5008337;28;21050;-77
2021/09/25 09:54:14;;;;;;;1999.90;966.80;;;20.70;99.90;;;;;;5014669;28;20888;-77
2021/09/25 09:56:44;;;;;;;1999.90;896.40;;;20.80;99.90;;;;;;4996418;28;20909;-77
2021/09/25 09:59:13;;;;;;;1999.90;983.93;;;20.80;99.90;;;;;;4996197;28;20482;-77
2021/09/25 10:01:43;;;;;;;1999.90;939.43;;;20.80;99.90;;;;;;4996222;28;20456;-77
2021/09/25 10:04:12;;;;;;;1999.90;973.87;;;20.90;99.90;;;;;;4996416;28;20935;-78
2021/09/25 10:06:42;;;;;;;1999.90;818.60;;;20.90;99.90;;;;;;5012890;28;20461;-76
2021/09/25 10:09:11;;;;;;;1999.90;999.90;;;20.90;99.90;;;;;;5015888;28;20205;-77
2021/09/25 10:11:41;;;;;;;1999.90;999.90;;;20.90;99.90;;;;;;5033849;28;20420;-78
2021/09/25 10:14:11;;;;;;;1999.90;972.87;;;21.00;99.90;;;;;;5016500;28;20239;-78
2021/09/25 10:16:43;;;;;;;1999.90;819.30;;;21.00;99.90;;;;;;5034568;28;20463;-78
2021/09/25 10:19:13;;;;;;;1977.80;738.83;;;21.00;99.90;;;;;;5013307;28;20470;-77
2021/09/25 10:21:42;;;;;;;1741.03;596.10;;;21.00;99.90;;;;;;5021588;28;20502;-77
2021/09/25 10:24:16;;;;;;;1999.90;724.70;;;21.00;99.90;;;;;;4992956;28;20483;-77
2021/09/25 10:26:45;;;;;;;1999.90;813.50;;;21.00;99.90;;;;;;4977549;28;20548;-77
2021/09/25 10:29:19;;;;;;;1999.90;937.33;;;21.00;99.90;;;;;;4993873;28;20452;-78
2021/09/25 10:31:49;;;;;;;1988.23;722.37;;;21.00;99.90;;;;;;4994223;28;20444;-78
2021/09/25 10:34:26;;;;;;;1964.40;677.33;;;21.00;99.90;;;;;;4995099;28;20448;-78
2021/09/25 10:36:57;;;;;;;1999.90;999.90;;;21.00;99.90;;;;;;4975637;28;20460;-78
2021/09/25 10:39:29;;;;;;;1780.50;584.80;;;21.10;99.90;;;;;;5014147;28;20460;-77
2021/09/25 10:42:11;;;;;;;1999.90;999.90;;;21.10;99.90;;;;;;5012237;28;20533;-78
2021/09/25 10:44:57;;;;;;;1999.90;878.80;;;21.10;99.90;;;;;;4996090;28;20296;-78
2021/09/25 10:47:34;;;;;;;1999.90;722.60;;;21.10;99.90;;;;;;5014216;28;20966;-78
2021/09/25 10:50:14;;;;;;;1923.43;696.97;;;21.10;99.90;;;;;;5015408;28;20434;-78
2021/09/25 10:52:50;;;;;;;1999.90;902.57;;;21.10;99.90;;;;;;5013749;28;20539;-78
2021/09/25 10:55:24;;;;;;;1999.90;736.53;;;21.10;99.90;;;;;;5015026;28;20474;-77
2021/09/25 10:58:30;;;;;;;1999.90;747.53;;;21.10;99.90;;;;;;4998111;28;20462;-77
2021/09/25 11:01:04;;;;;;;1999.90;897.83;;;21.10;99.90;;;;;;4956539;28;20449;-78
2021/09/25 11:04:08;;;;;;;1999.90;959.77;;;21.00;99.90;;;;;;4993338;28;20458;-79
2021/09/25 11:06:43;;;;;;;1999.90;999.90;;;21.00;99.90;;;;;;4997475;28;20928;-77
2021/09/25 11:09:18;;;;;;;1999.90;949.70;;;21.10;99.90;;;;;;5021479;28;20856;-80
2021/09/25 11:11:51;;;;;;;1999.90;817.60;;;21.20;99.90;;;;;;5019759;28;20473;-80
2021/09/25 11:14:40;;;;;;;1999.90;917.30;;;21.20;99.90;;;;;;5021245;28;20443;-80
2021/09/25 11:17:24;;;;;;;1999.90;999.90;;;21.30;99.90;;;;;;4993754;28;20460;-80
2021/09/25 11:19:58;;;;;;;1999.90;939.27;;;21.30;99.90;;;;;;5020574;28;20463;-80
2021/09/25 11:22:31;;;;;;;1999.90;905.50;;;21.40;99.90;;;;;;5004119;28;20452;-81
2021/09/25 11:25:04;;;;;;;1999.90;951.67;;;21.40;99.90;;;;;;5003433;28;20570;-80
2021/09/25 11:27:34;;;;;;;1999.90;939.47;;;21.40;99.90;;;;;;5005627;28;20534;-80
2021/09/25 11:30:13;;;;;;;1999.90;903.67;;;21.50;99.90;;;;;;5021561;28;20597;-83
2021/09/25 11:32:45;;;;;;;1999.90;891.53;;;21.50;99.90;;;;;;5023867;28;20533;-81
2021/09/25 11:35:17;;;;;;;1999.90;767.50;;;21.60;99.90;;;;;;5022788;28;20839;-81
2021/09/25 11:37:51;;;;;;;1999.90;999.90;;;21.60;99.90;;;;;;5022588;28;20863;-81
2021/09/25 11:40:22;;;;;;;1999.90;792.67;;;21.60;99.90;;;;;;5039513;28;20290;-81
2021/09/25 11:42:52;;;;;;;1973.60;732.27;;;21.50;99.90;;;;;;5013001;28;20953;-81
2021/09/25 11:45:21;;;;;;;1999.90;999.90;;;21.60;99.90;;;;;;5022058;28;20948;-81
2021/09/25 11:47:51;;;;;;;881.13;395.17;;;21.60;99.90;;;;;;5022957;28;20196;-81
2021/09/25 11:50:22;;;;;;;508.70;288.10;;;21.60;99.90;;;;;;5028813;28;20950;-81
2021/09/25 11:52:52;;;;;;;1884.90;597.30;;;21.60;99.90;;;;;;5004474;28;20833;-81
2021/09/25 11:55:24;;;;;;;1999.90;889.83;;;21.50;99.90;;;;;;5003695;28;20998;-81
2021/09/25 11:57:55;;;;;;;1999.90;864.30;;;21.50;99.90;;;;;;5003340;28;20460;-81
2021/09/25 12:00:26;;;;;;;1999.90;780.60;;;21.50;99.90;;;;;;5003141;28;20535;-81
2021/09/25 12:02:56;;;;;;;1999.90;724.07;;;21.50;99.90;;;;;;5002958;28;20475;-81
2021/09/25 12:05:34;;;;;;;1827.73;638.20;;;21.40;99.90;;;;;;5020865;28;20467;-81
2021/09/25 12:08:06;;;;;;;1999.90;999.90;;;21.40;99.90;;;;;;5020044;28;20518;-82
2021/09/25 12:10:36;;;;;;;1999.90;995.80;;;21.50;99.90;;;;;;5022963;28;20212;-84
2021/09/25 12:13:07;;;;;;;1999.90;999.90;;;21.40;99.90;;;;;;5001837;28;20558;-84
2021/09/25 12:15:49;;;;;;;1999.90;796.70;;;21.40;99.90;;;;;;5003208;28;20570;-84